Weather History for KRYW - September, 2013

Change the Weather History Date:

Sunday, September 22, 2013

  Actual Average (KATT) Record (KATT)
Temperature  
Mean Temperature 71 °F 78 °F  
Max Temperature 82 °F 89 °F 102 °F (1926)
Min Temperature 60 °F 68 °F 49 °F (1995)
Degree Days  
Heating Degree Days 0 0  
Month to date heating degree days 0  
Since 1 July heating degree days 0  
Cooling Degree Days 6 13  
Month to date cooling degree days 354  
Year to date cooling degree days 2748  
Growing Degree Days 21 (Base 50)    
Moisture  
Dew Point 47 °F    
Average Humidity 44    
Maximum Humidity 68    
Minimum Humidity 24    
Precipitation  
Precipitation 0.00 in 0.08 in 4.00 in (1965)
Month to date precipitation 2.28  
Year to date precipitation 24.37  
Snow  
Snow 0.00 in - - ()
Month to date snowfall  
Since 1 July snowfall  
Since 1 September snowfall  
Snow Depth -    
Sea Level Pressure  
Sea Level Pressure 29.89 in    
Wind  
Wind Speed 7 mph (NE)    
Max Wind Speed 10 mph    
Max Gust Speed 17 mph    
Visibility 10 miles    
Events      
T = Trace of Precipitation, MM = Missing Value Source: NWS Daily Summary

Daily Weather History Graph

Daily Weather History Graph

Search for Another Location

Airport or City:

Trip Planner

Search our weather history database for the weather conditions in past years. The results will help you decide how hot, cold, wet, or windy it might be!

Date:

Astronomy

Sep. 22, 2013 Rise Set
Actual Time 7:20 AM CDT 7:28 PM CDT
Civil Twilight 6:56 AM CDT 7:52 PM CDT
Nautical Twilight 6:28 AM CDT 8:20 PM CDT
Astronomical Twilight 6:00 AM CDT 8:48 PM CDT
Moon 9:36 PM CDT (9/22) 10:25 AM CDT (9/22)
Length of Visible Light 12h 55m
Length of Day
12h 07m
Waning Gibbous, 88% of the Moon is Illuminated
Sep 22
Waning Gibbous
Sep 26
Last Quarter
Oct 4
New
Oct 11
First Quarter
Oct 18
Full

Hourly Weather History & Observations

Time (CDT) Temp. Dew Point Humidity Pressure Visibility Wind Dir Wind Speed Gust Speed Precip Events Conditions
12:15 AM 66.2 °F 44.6 °F 46% 29.92 in 10.0 mi North 5.8 mph - N/A   Clear
12:35 AM 66.2 °F 44.6 °F 46% 29.91 in 10.0 mi North 5.8 mph - N/A   Clear
12:55 AM 66.2 °F 44.6 °F 46% 29.92 in 10.0 mi North 5.8 mph - N/A   Clear
1:15 AM 66.2 °F 44.6 °F 46% 29.91 in 10.0 mi North 5.8 mph - N/A   Clear
1:35 AM 64.4 °F 44.6 °F 49% 29.91 in 10.0 mi North 8.1 mph - N/A   Clear
1:55 AM 64.4 °F 44.6 °F 49% 29.91 in 10.0 mi NNE 8.1 mph - N/A   Clear
2:15 AM 64.4 °F 44.6 °F 49% 29.91 in 10.0 mi NNE 9.2 mph - N/A   Clear
2:35 AM 64.4 °F 44.6 °F 49% 29.91 in 10.0 mi NNE 8.1 mph - N/A   Clear
2:55 AM 64.4 °F 44.6 °F 49% 29.90 in 10.0 mi NNE 9.2 mph - N/A   Clear
3:15 AM 64.4 °F 46.4 °F 52% 29.90 in 10.0 mi NNE 8.1 mph - N/A   Clear
3:35 AM 62.6 °F 46.4 °F 55% 29.89 in 10.0 mi NNE 9.2 mph - N/A   Clear
3:55 AM 62.6 °F 46.4 °F 55% 29.89 in 10.0 mi NNE 9.2 mph - N/A   Clear
4:15 AM 62.6 °F 46.4 °F 55% 29.88 in 10.0 mi NNE 8.1 mph - N/A   Clear
4:35 AM 62.6 °F 46.4 °F 55% 29.88 in 10.0 mi NNE 8.1 mph - N/A   Clear
4:55 AM 62.6 °F 48.2 °F 59% 29.88 in 10.0 mi NNE 8.1 mph - N/A   Clear
5:15 AM 60.8 °F 48.2 °F 63% 29.88 in 10.0 mi North 8.1 mph - N/A   Clear
5:35 AM 60.8 °F 48.2 °F 63% 29.89 in 10.0 mi North 8.1 mph - N/A   Clear
5:55 AM 60.8 °F 48.2 °F 63% 29.89 in 10.0 mi North 6.9 mph - N/A   Clear
6:15 AM 60.8 °F 48.2 °F 63% 29.90 in 10.0 mi North 6.9 mph - N/A   Clear
6:35 AM 60.8 °F 48.2 °F 63% 29.90 in 10.0 mi NW 4.6 mph - N/A   Clear
6:55 AM 60.8 °F 50.0 °F 68% 29.91 in 10.0 mi NNE 6.9 mph - N/A   Clear
7:15 AM 60.8 °F 50.0 °F 68% 29.91 in 10.0 mi North 6.9 mph - N/A   Clear
7:35 AM 60.8 °F 50.0 °F 68% 29.90 in 10.0 mi NNE 8.1 mph - N/A   Clear
7:55 AM 60.8 °F 50.0 °F 68% 29.91 in 10.0 mi NNE 6.9 mph - N/A   Clear
8:15 AM 62.6 °F 50.0 °F 63% 29.92 in 10.0 mi North 5.8 mph - N/A   Clear
8:35 AM 64.4 °F 50.0 °F 59% 29.92 in 10.0 mi NNE 5.8 mph - N/A   Clear
8:55 AM 66.2 °F 51.8 °F 60% 29.93 in 10.0 mi NE 6.9 mph - N/A   Clear
9:15 AM 68.0 °F 51.8 °F 56% 29.93 in 10.0 mi NE 5.8 mph - N/A   Clear
9:35 AM 69.8 °F 51.8 °F 53% 29.94 in 10.0 mi ENE 3.5 mph - N/A   Clear
9:55 AM 71.6 °F 51.8 °F 50% 29.95 in 10.0 mi ENE 8.1 mph - N/A   Clear
10:15 AM 71.6 °F 51.8 °F 50% 29.95 in 10.0 mi NE 8.1 mph - N/A   Clear
10:35 AM 73.4 °F 50.0 °F 44% 29.95 in 10.0 mi NNE 5.8 mph - N/A   Clear
10:55 AM 73.4 °F 50.0 °F 44% 29.95 in 10.0 mi North 8.1 mph - N/A   Clear
11:15 AM 77.0 °F 50.0 °F 39% 29.95 in 10.0 mi ENE 10.4 mph - N/A   Clear
11:35 AM 75.2 °F 48.2 °F 38% 29.95 in 10.0 mi NNE 8.1 mph 17.3 mph N/A   Clear
11:55 AM 77.0 °F 46.4 °F 34% 29.94 in 10.0 mi ENE 10.4 mph 16.1 mph N/A   Clear
12:15 PM 77.0 °F 46.4 °F 34% 29.94 in 10.0 mi East 6.9 mph 16.1 mph N/A   Clear
12:35 PM 78.8 °F 46.4 °F 32% 29.93 in 10.0 mi NNE 9.2 mph - N/A   Clear
12:55 PM 78.8 °F 46.4 °F 32% 29.93 in 10.0 mi East 5.8 mph 16.1 mph N/A   Clear
1:15 PM 78.8 °F 46.4 °F 32% 29.92 in 10.0 mi NNE 6.9 mph - N/A   Clear
1:35 PM 78.8 °F 46.4 °F 32% 29.91 in 10.0 mi East 8.1 mph 16.1 mph N/A   Clear
1:55 PM 80.6 °F 46.4 °F 30% 29.91 in 10.0 mi NE 6.9 mph - N/A   Clear
2:15 PM 80.6 °F 44.6 °F 28% 29.89 in 10.0 mi ENE 5.8 mph - N/A   Clear
2:35 PM 80.6 °F 46.4 °F 30% 29.88 in 10.0 mi NE 6.9 mph 16.1 mph N/A   Clear
2:55 PM 80.6 °F 44.6 °F 28% 29.87 in 10.0 mi North 5.8 mph - N/A   Clear
3:15 PM 80.6 °F 46.4 °F 30% 29.87 in 10.0 mi NE 8.1 mph - N/A   Clear
3:35 PM 82.4 °F 44.6 °F 26% 29.86 in 10.0 mi East 3.5 mph - N/A   Clear
3:55 PM 82.4 °F 42.8 °F 25% 29.85 in 10.0 mi ENE 6.9 mph - N/A   Clear
4:15 PM 82.4 °F 44.6 °F 26% 29.84 in 10.0 mi East 5.8 mph - N/A   Clear
4:35 PM 82.4 °F 42.8 °F 25% 29.84 in 10.0 mi NE 3.5 mph - N/A   Clear
4:55 PM 82.4 °F 42.8 °F 25% 29.83 in 10.0 mi ENE 9.2 mph - N/A   Clear
5:15 PM 82.4 °F 42.8 °F 25% 29.83 in 10.0 mi ENE 9.2 mph - N/A   Clear
5:35 PM 80.6 °F 42.8 °F 26% 29.82 in 10.0 mi East 5.8 mph - N/A   Clear
5:55 PM 80.6 °F 41.0 °F 24% 29.82 in 10.0 mi NE 8.1 mph - N/A   Clear
6:15 PM 80.6 °F 42.8 °F 26% 29.83 in 10.0 mi NE 5.8 mph - N/A   Clear
6:35 PM 78.8 °F 42.8 °F 28% 29.83 in 10.0 mi NE 5.8 mph - N/A   Clear
6:55 PM 78.8 °F 44.6 °F 30% 29.83 in 10.0 mi ENE 4.6 mph - N/A   Clear
7:15 PM 75.2 °F 44.6 °F 34% 29.83 in 10.0 mi NE 5.8 mph - N/A   Clear
7:35 PM 73.4 °F 44.6 °F 36% 29.83 in 10.0 mi ENE 5.8 mph - N/A   Clear
7:55 PM 71.6 °F 46.4 °F 41% 29.83 in 10.0 mi ENE 4.6 mph - N/A   Clear
8:15 PM 71.6 °F 46.4 °F 41% 29.83 in 10.0 mi ENE 4.6 mph - N/A   Clear
8:35 PM 69.8 °F 46.4 °F 43% 29.83 in 10.0 mi ENE 5.8 mph - N/A   Clear
8:55 PM 69.8 °F 46.4 °F 43% 29.84 in 10.0 mi ENE 5.8 mph - N/A   Clear
9:15 PM 69.8 °F 46.4 °F 43% 29.84 in 10.0 mi East 5.8 mph - N/A   Clear
9:35 PM 69.8 °F 46.4 °F 43% 29.84 in 10.0 mi ENE 5.8 mph - N/A   Clear
9:55 PM 68.0 °F 48.2 °F 49% 29.85 in 10.0 mi ENE 5.8 mph - N/A   Clear
10:15 PM 68.0 °F 48.2 °F 49% 29.85 in 10.0 mi ENE 5.8 mph - N/A   Clear
10:35 PM 68.0 °F 48.2 °F 49% 29.86 in 10.0 mi ENE 4.6 mph - N/A   Clear
10:55 PM 68.0 °F 48.2 °F 49% 29.86 in 10.0 mi ENE 4.6 mph - N/A   Clear
11:15 PM 68.0 °F 48.2 °F 49% 29.85 in 10.0 mi ENE 5.8 mph - N/A   Clear
11:35 PM 68.0 °F 48.2 °F 49% 29.85 in 10.0 mi ENE 6.9 mph - N/A   Clear
11:55 PM 68.0 °F 48.2 °F 49% 29.85 in 10.0 mi ENE 4.6 mph - N/A   Clear